Latest Weather Observations for Point Fawcett

IDD60801

Issued at 3:11 pm CST Saturday 24 February 2024 (issued every 10 minutes, with the page automatically refreshed every 10 minutes)

About weather observations | Map of weather stations | Latest weather observations for NT | Other Formats
Station Details ID: 200731 Name: POINT FAWCETT Lat: -11.76 Lon: 130.03 Height: 6.5 m
Data from the previous 72 hours. | See also: Recent months at Point Fawcett
Date/Time
CST
Temp
°C
App
Temp
°C
Dew
Point
°C
Rel
Hum
%
Delta-T
°C
Wind Press
QNH
hPa
Press
MSL
hPa
Rain since
9am
mm
Dir  Spd
km/h
Gust
km/h
Spd
kts
Gust
kts
24/03:00pm 27.9 30.8 25.1 85 2.0 WSW 19 26 10 14 1006.2 1006.1 0.0
24/02:30pm 28.3 31.5 24.9 82 2.4 WSW 17 24 9 13 1006.3 1006.2 0.0
24/02:00pm 28.9 31.8 25.1 80 2.7 WSW 19 26 10 14 1006.3 1006.2 0.0
24/01:30pm 29.2 32.6 25.8 82 2.4 WSW 19 28 10 15 1006.6 1006.5 0.0
24/01:00pm 28.8 31.3 25.4 82 2.4 SW 22 30 12 16 1007.5 1007.4 0.0
24/12:30pm 28.2 31.0 25.8 87 1.7 SW 22 32 12 17 1008.3 1008.2 0.0
24/12:00pm 29.7 31.2 26.7 84 2.2 WSW 32 48 17 26 1008.6 1008.5 0.0
24/11:30am 30.8 32.6 27.2 81 2.6 W 32 39 17 21 1008.8 1008.7 0.0
24/11:00am 30.8 33.9 27.4 82 2.5 W 26 32 14 17 1008.8 1008.7 0.0
24/10:30am 30.7 34.3 27.5 83 2.3 W 24 32 13 17 1009.0 1008.9 0.0
24/10:00am 30.8 33.6 26.9 80 2.8 W 26 32 14 17 1008.8 1008.7 0.0
24/09:30am 30.7 34.5 27.3 82 2.5 W 22 30 12 16 1009.3 1009.2 0.0
24/09:00am 30.2 33.4 27.0 83 2.3 WSW 24 33 13 18 1009.5 1009.4 0.0
24/08:30am 30.0 33.0 27.2 85 2.0 W 26 35 14 19 1009.1 1009.0 0.0
24/08:00am 29.8 31.7 26.8 84 2.2 W 30 35 16 19 1008.5 1008.4 0.0
24/07:30am 29.6 31.9 26.8 85 2.0 W 28 33 15 18 1008.4 1008.3 0.0
24/07:00am 29.5 31.7 26.7 85 2.0 W 28 33 15 18 1008.3 1008.2 0.0
24/06:30am 29.4 31.8 26.4 84 2.1 W 26 32 14 17 1008.2 1008.1 0.0
24/06:00am 29.5 32.1 26.7 85 2.0 W 26 32 14 17 1008.1 1008.0 0.0
24/05:30am 29.5 32.6 26.9 86 1.9 W 24 30 13 16 1008.1 1008.0 0.0
24/05:00am 29.5 32.4 26.5 84 2.1 W 24 30 13 16 1008.0 1007.9 0.0
24/04:30am 29.4 32.3 26.6 85 2.0 W 24 32 13 17 1007.9 1007.8 0.0
24/04:00am 29.3 31.8 26.5 85 2.0 WNW 26 32 14 17 1007.5 1007.4 0.0
24/03:30am 29.4 32.3 26.6 85 2.0 WNW 24 30 13 16 1007.5 1007.4 0.0
24/03:00am 29.4 33.0 27.0 87 1.7 WNW 22 26 12 14 1007.8 1007.7 0.0
24/02:30am 29.3 32.3 26.7 86 1.9 W 24 30 13 16 1007.9 1007.8 0.0
24/02:00am 29.5 32.6 26.9 86 1.9 W 24 32 13 17 1008.2 1008.1 0.0
24/01:30am 29.5 32.5 26.7 85 2.0 W 24 30 13 16 1008.7 1008.6 0.0
24/01:00am 29.5 32.4 26.5 84 2.1 W 24 30 13 16 1009.2 1009.1 0.0
24/12:30am 29.6 32.5 26.6 84 2.1 W 24 30 13 16 1009.7 1009.6 0.0
24/12:00am 29.7 33.5 26.7 84 2.2 W 20 28 11 15 1010.2 1010.1 0.0
 
Date/Time
CST
Temp
°C
App
Temp
°C
Dew
Point
°C
Rel
Hum
%
Delta-T
°C
Wind Press
QNH
hPa
Press
MSL
hPa
Rain since
9am
mm
Dir  Spd
km/h
Gust
km/h
Spd
kts
Gust
kts
23/11:30pm 29.6 32.8 26.4 83 2.3 W 22 28 12 15 1010.6 1010.5 0.0
23/11:00pm 29.6 33.4 26.8 85 2.0 W 20 26 11 14 1010.9 1010.8 0.0
23/10:30pm 29.7 33.2 26.9 85 2.0 W 22 26 12 14 1010.8 1010.7 0.0
23/10:00pm 29.6 33.7 26.4 83 2.3 W 17 20 9 11 1010.7 1010.6 0.0
23/09:30pm 29.6 33.4 26.4 83 2.3 W 19 24 10 13 1010.2 1010.1 0.0
23/09:00pm 29.7 33.9 26.5 83 2.3 W 17 20 9 11 1010.5 1010.4 0.0
23/08:30pm 29.8 33.4 26.4 82 2.4 W 20 26 11 14 1009.9 1009.8 0.0
23/08:00pm 29.9 33.9 26.7 83 2.3 W 19 22 10 12 1009.4 1009.3 0.0
23/07:30pm 29.9 33.7 26.5 82 2.4 W 19 22 10 12 1009.5 1009.4 0.0
23/07:00pm 30.1 34.4 26.7 82 2.4 WSW 17 22 9 12 1009.0 1008.9 0.0
23/06:30pm 30.8 34.9 26.9 80 2.8 WSW 19 26 10 14 1008.6 1008.5 0.0
23/06:00pm 31.2 35.5 26.7 77 3.2 WSW 17 24 9 13 1008.3 1008.2 0.0
23/05:30pm 31.8 36.7 27.0 76 3.5 WSW 15 22 8 12 1008.5 1008.4 0.0
23/05:00pm 32.1 36.4 26.6 72 4.0 WSW 17 22 9 12 1008.5 1008.4 0.0
23/04:30pm 32.1 36.7 27.6 77 3.3 W 19 24 10 13 1008.3 1008.2 0.0
23/04:00pm 31.8 36.0 27.0 76 3.5 W 19 22 10 12 1008.4 1008.3 0.0
23/03:30pm 32.0 36.5 27.5 77 3.3 W 19 24 10 13 1008.5 1008.4 0.0
23/03:00pm 31.7 36.5 27.4 78 3.1 W 17 22 9 12 1008.5 1008.4 0.0
23/02:30pm 31.7 36.1 27.4 78 3.1 WNW 19 22 10 12 1008.9 1008.8 0.0
23/02:00pm 31.7 36.5 27.4 78 3.1 W 17 22 9 12 1009.2 1009.1 0.0
23/01:30pm 31.8 36.5 27.3 77 3.3 W 17 20 9 11 1010.0 1009.9 0.0
23/01:00pm 31.9 37.2 27.6 78 3.1 W 15 17 8 9 1010.4 1010.3 0.0
23/12:30pm 32.2 37.8 27.4 76 3.5 WSW 13 17 7 9 1011.0 1010.9 0.0
23/12:00pm 32.4 38.3 27.8 77 3.4 WSW 13 17 7 9 1011.5 1011.4 0.0
23/11:30am 32.1 38.2 27.6 77 3.3 WSW 11 15 6 8 1011.7 1011.6 0.0
23/11:00am 31.5 37.6 27.6 80 2.8 W 11 15 6 8 1011.9 1011.8 0.0
23/10:30am 31.2 37.1 27.8 82 2.5 W 13 17 7 9 1011.6 1011.5 0.0
23/10:00am 31.2 37.4 27.8 82 2.5 W 11 15 6 8 1011.6 1011.5 0.0
23/09:30am 31.0 37.6 27.8 83 2.3 WSW 9 13 5 7 1011.4 1011.3 0.0
23/09:00am 30.6 36.7 27.6 84 2.2 WSW 11 15 6 8 1011.3 1011.2 0.0
23/08:30am 30.1 36.4 27.3 85 2.0 WSW 9 13 5 7 1011.1 1011.0 0.0
23/08:00am 29.4 34.9 26.8 86 1.9 WSW 11 15 6 8 1011.0 1010.9 0.0
23/07:30am 28.8 34.3 26.8 89 1.4 WSW 11 15 6 8 1010.7 1010.6 0.0
23/07:00am 28.2 33.6 26.6 91 1.1 WSW 11 13 6 7 1010.4 1010.3 0.0
23/06:30am 27.4 33.0 26.3 94 0.8 WSW 9 11 5 6 1010.3 1010.2 0.0
23/06:00am 26.3 32.0 25.6 96 0.5 WSW 6 9 3 5 1010.1 1010.0 0.0
23/05:30am 26.4 32.4 25.5 95 0.6 WSW 4 11 2 6 1010.0 1009.9 0.0
23/05:00am 26.9 33.0 25.7 93 0.8 WSW 4 7 2 4 1009.9 1009.8 0.0
23/04:30am 28.4 34.2 26.6 90 1.3 WSW 9 11 5 6 1009.8 1009.7 0.0
23/04:00am 28.6 34.0 26.6 89 1.4 WSW 11 13 6 7 1009.8 1009.7 0.0
23/03:30am 28.4 33.9 26.8 91 1.1 W 11 13 6 7 1010.0 1009.9 0.0
23/03:00am 27.5 33.3 26.6 95 0.6 W 9 11 5 6 1010.2 1010.1 0.0
23/02:30am 27.3 33.9 26.4 95 0.6 WSW 4 9 2 5 1010.3 1010.2 0.0
23/02:00am 27.6 35.0 26.4 93 0.9 CALM 0 0 0 0 1010.4 1010.3 0.0
23/01:30am 28.6 34.5 26.8 90 1.3 W 9 13 5 7 1010.6 1010.5 0.0
23/01:00am 28.7 34.3 26.9 90 1.3 WNW 11 13 6 7 1010.9 1010.8 0.0
23/12:30am 28.8 34.2 27.2 91 1.2 NW 13 17 7 9 1010.9 1010.8 0.0
23/12:00am 28.9 34.4 27.3 91 1.2 WNW 13 15 7 8 1011.1 1011.0 0.0
 
Date/Time
CST
Temp
°C
App
Temp
°C
Dew
Point
°C
Rel
Hum
%
Delta-T
°C
Wind Press
QNH
hPa
Press
MSL
hPa
Rain since
9am
mm
Dir  Spd
km/h
Gust
km/h
Spd
kts
Gust
kts
22/11:30pm 28.9 34.6 27.1 90 1.3 WNW 11 13 6 7 1011.4 1011.3 0.0
22/11:00pm 28.9 34.5 26.9 89 1.4 NW 11 13 6 7 1011.7 1011.6 0.0
22/10:30pm 29.0 34.2 26.8 88 1.6 NW 13 15 7 8 1011.9 1011.8 0.0
22/10:00pm 29.0 34.8 26.6 87 1.7 WNW 9 11 5 6 1011.6 1011.5 0.0
22/09:30pm 29.1 34.8 26.5 86 1.9 WNW 9 13 5 7 1011.2 1011.1 0.0
22/09:00pm 29.1 34.8 26.5 86 1.9 WNW 9 13 5 7 1010.8 1010.7 0.0
22/08:30pm 29.2 34.5 26.4 85 2.0 WNW 11 13 6 7 1010.4 1010.3 0.0
22/08:00pm 29.4 34.8 26.6 85 2.0 WNW 11 15 6 8 1010.3 1010.2 0.0
22/07:30pm 29.5 34.6 26.7 85 2.0 WNW 13 17 7 9 1010.0 1009.9 0.0
22/07:00pm 29.9 35.1 26.9 84 2.2 WNW 13 15 7 8 1009.6 1009.5 0.0
22/06:30pm 30.7 36.2 26.8 80 2.8 NW 11 13 6 7 1009.4 1009.3 0.0
22/06:00pm 31.1 36.4 27.0 79 3.0 WNW 13 15 7 8 1009.2 1009.1 0.0
22/05:30pm 31.0 36.0 26.5 77 3.2 WNW 13 15 7 8 1009.2 1009.1 0.0
22/05:00pm 31.3 36.2 27.0 78 3.1 WNW 15 19 8 10 1009.1 1009.0 0.0
22/04:30pm 31.3 36.4 27.2 79 3.0 WNW 15 19 8 10 1009.1 1009.0 0.0
22/04:00pm 32.1 37.2 27.3 76 3.5 WNW 15 17 8 9 1009.1 1009.0 0.0
22/03:30pm 32.0 37.5 26.8 74 3.8 WNW 11 13 6 7 1009.1 1009.0 0.0
22/03:00pm 31.5 36.4 27.0 77 3.3 W 15 17 8 9 1009.1 1009.0 0.0
22/02:30pm 32.0 37.6 27.9 79 3.0 WNW 15 19 8 10 1009.5 1009.4 0.0
22/02:00pm 31.9 37.2 27.6 78 3.1 WNW 15 17 8 9 1009.8 1009.7 0.0
22/01:30pm 31.6 36.4 26.8 75 3.5 WNW 15 19 8 10 1010.2 1010.1 0.0
22/01:00pm 32.2 37.8 27.4 76 3.5 NW 13 17 7 9 1010.6 1010.5 0.0
22/12:30pm 32.0 37.4 27.7 78 3.1 NW 15 17 8 9 1010.9 1010.8 0.0
22/12:00pm 32.1 37.7 28.0 79 3.0 NW 15 17 8 9 1011.1 1011.0 0.0
22/11:30am 31.7 37.3 28.0 81 2.7 NW 15 17 8 9 1011.4 1011.3 0.0
22/11:00am 31.6 37.5 27.9 81 2.7 NNW 13 19 7 10 1011.6 1011.5 0.0
22/10:30am 31.1 36.4 27.0 79 3.0 NNW 13 17 7 9 1011.9 1011.8 0.0
22/10:00am 31.4 37.1 27.5 80 2.8 NNW 13 19 7 10 1011.9 1011.8 0.0
22/09:30am 31.1 36.5 27.7 82 2.5 NNW 15 19 8 10 1011.7 1011.6 0.0
22/09:00am 30.6 35.7 27.2 82 2.5 NNW 15 19 8 10 1011.6 1011.5 0.0
22/08:30am 30.1 35.2 27.3 85 2.0 NNW 15 20 8 11 1011.4 1011.3 0.0
22/08:00am 29.2 34.7 26.8 87 1.7 N 11 17 6 9 1011.3 1011.2 0.0
22/07:30am 28.6 34.1 26.8 90 1.3 N 11 13 6 7 1011.1 1011.0 0.0
22/07:00am 28.4 34.1 26.4 89 1.4 N 9 13 5 7 1010.9 1010.8 0.0
22/06:30am 28.6 33.5 26.4 88 1.6 NNW 13 20 7 11 1010.7 1010.6 0.0
22/06:00am 28.7 33.8 26.7 89 1.4 NNW 13 19 7 10 1010.2 1010.1 0.0
22/05:30am 28.6 32.6 26.2 87 1.7 NNW 17 20 9 11 1009.9 1009.8 0.0
22/05:00am 28.7 33.4 26.7 89 1.4 NNW 15 20 8 11 1009.6 1009.5 0.0
22/04:30am 28.8 33.2 26.8 89 1.4 NNW 17 22 9 12 1009.6 1009.5 0.0
22/04:00am 28.7 32.5 26.5 88 1.6 NNW 19 22 10 12 1009.6 1009.5 0.0
22/03:30am 28.7 32.9 26.5 88 1.6 N 17 20 9 11 1009.6 1009.5 0.0
22/03:00am 28.8 32.5 26.6 88 1.6 NNW 20 24 11 13 1009.7 1009.6 0.0
22/02:30am 28.9 32.9 26.7 88 1.6 NNW 19 24 10 13 1009.9 1009.8 0.0
22/02:00am 28.9 32.9 26.7 88 1.6 NNW 19 24 10 13 1010.0 1009.9 0.0
22/01:30am 29.0 33.2 27.0 89 1.4 NNW 19 22 10 12 1010.1 1010.0 0.0
22/01:00am 29.0 32.9 26.6 87 1.7 NNW 19 24 10 13 1010.4 1010.3 0.0
22/12:30am 29.0 33.5 27.0 89 1.4 NNW 17 20 9 11 1010.6 1010.5 0.0
22/12:00am 29.0 33.5 27.0 89 1.4 NNW 17 22 9 12 1010.6 1010.5 0.0
 
Date/Time
CST
Temp
°C
App
Temp
°C
Dew
Point
°C
Rel
Hum
%
Delta-T
°C
Wind Press
QNH
hPa
Press
MSL
hPa
Rain since
9am
mm
Dir  Spd
km/h
Gust
km/h
Spd
kts
Gust
kts
21/11:30pm 29.2 33.0 26.8 87 1.7 NNW 20 26 11 14 1011.0 1010.9 0.0
21/11:00pm 29.1 33.2 26.9 88 1.6 NNW 19 24 10 13 1010.9 1010.8 0.0
21/10:30pm 29.1 32.9 26.7 87 1.7 N 20 26 11 14 1010.6 1010.5 0.0
21/10:00pm 29.2 33.0 26.8 87 1.7 N 20 26 11 14 1010.3 1010.2 0.0
21/09:30pm 29.2 33.2 27.0 88 1.6 N 20 26 11 14 1009.7 1009.6 0.0
21/09:00pm 29.2 33.3 27.2 89 1.4 N 20 26 11 14 1009.2 1009.1 0.0
21/08:30pm 29.2 33.2 27.0 88 1.6 N 20 26 11 14 1008.7 1008.6 0.0
21/08:00pm 29.4 33.0 27.0 87 1.7 N 22 30 12 16 1008.4 1008.3 0.0
21/07:30pm 29.4 33.4 27.0 87 1.7 N 20 30 11 16 1008.1 1008.0 0.0
21/07:00pm 29.6 33.4 26.8 85 2.0 N 20 26 11 14 1007.9 1007.8 0.0
21/06:30pm 30.2 34.5 27.2 84 2.2 N 19 24 10 13 1007.6 1007.5 0.0
21/06:00pm 31.0 35.0 26.7 78 3.1 N 19 26 10 14 1007.3 1007.2 0.0
21/05:30pm 31.4 35.3 27.5 80 2.8 N 22 32 12 17 1007.0 1006.9 0.0
21/05:00pm 31.7 36.1 27.6 79 3.0 N 20 28 11 15 1007.0 1006.9 0.0
21/04:30pm 31.8 36.0 27.3 77 3.3 N 20 28 11 15 1006.9 1006.8 0.0
21/04:00pm 32.1 36.1 27.6 77 3.3 N 22 28 12 15 1007.0 1006.9 0.0
21/03:30pm 31.9 36.3 27.6 78 3.1 N 20 28 11 15 1007.2 1007.1 0.0

Other formats

Comma delimited format used in spreadsheet applications
http://www.bom.gov.au/fwo/IDD60801/IDD60801.94122.axf

JavaScript Object Notation format (JSON) in row-major order
http://www.bom.gov.au/fwo/IDD60801/IDD60801.94122.json

Data quality

Most of these data are generated automatically and are frequently updated. Quality checks on data are not normally performed. It is possible for incorrect values to appear. Refer to information at About Latest Weather Observations and please check the disclaimer before using these data.